createdAt,value
2023-02-17T00:00:55.467Z,98168.38
2023-02-17T00:03:24.915Z,98164.44
2023-02-17T00:05:53.230Z,98157.28
2023-02-17T00:08:21.187Z,98153.13
2023-02-17T00:10:58.747Z,98153.22
2023-02-17T00:13:26.999Z,98150.25
2023-02-17T00:15:55.043Z,98149.41
2023-02-17T00:18:24.422Z,98150.25
2023-02-17T00:20:52.413Z,98157.00
2023-02-17T00:23:20.344Z,98151.75
2023-02-17T00:25:48.265Z,98146.53
2023-02-17T00:28:16.531Z,98149.97
2023-02-17T00:30:44.505Z,98145.34
2023-02-17T00:33:12.471Z,98145.78
2023-02-17T00:35:42.694Z,98146.69
2023-02-17T00:38:10.619Z,98140.16
2023-02-17T00:40:39.007Z,98140.25
2023-02-17T00:43:07.262Z,98130.41
2023-02-17T00:45:35.267Z,98130.97
2023-02-17T00:48:03.183Z,98133.53
2023-02-17T00:50:31.125Z,98136.84
2023-02-17T00:53:00.710Z,98139.31
2023-02-17T00:55:28.599Z,98132.91
2023-02-17T00:57:56.771Z,98133.78
2023-02-17T01:00:24.968Z,98125.09
2023-02-17T01:02:52.927Z,98125.50
2023-02-17T01:05:20.931Z,98118.25
2023-02-17T01:07:48.979Z,98117.94
2023-02-17T01:10:19.701Z,98105.84
2023-02-17T01:12:47.762Z,98107.16
2023-02-17T01:15:15.722Z,98108.97
2023-02-17T01:17:43.686Z,98109.50
2023-02-17T01:20:12.132Z,98114.44
2023-02-17T01:22:40.838Z,98111.97
2023-02-17T01:25:09.047Z,98109.94
2023-02-17T01:27:38.644Z,98109.19
2023-02-17T01:30:07.678Z,98103.19
2023-02-17T01:32:35.625Z,98092.59
2023-02-17T01:35:03.698Z,98099.75
2023-02-17T01:37:33.433Z,98095.59
2023-02-17T01:40:01.452Z,98090.38
2023-02-17T01:42:29.334Z,98094.22
2023-02-17T01:45:39.984Z,98082.38
2023-02-17T01:48:11.235Z,98084.03
2023-02-17T01:50:41.977Z,98077.41
2023-02-17T01:53:10.340Z,98074.97
2023-02-17T01:55:38.621Z,98073.69
2023-02-17T01:58:06.621Z,98076.03
2023-02-17T02:00:34.781Z,98082.31
2023-02-17T02:03:03.100Z,98069.63
2023-02-17T02:05:32.529Z,98074.84
2023-02-17T02:08:00.470Z,98068.41
2023-02-17T02:10:28.345Z,98068.00
2023-02-17T02:12:56.240Z,98070.97
2023-02-17T02:15:24.881Z,98065.09
2023-02-17T02:18:01.495Z,98067.44
2023-02-17T02:21:02.597Z,98067.03
2023-02-17T02:24:00.809Z,98055.59
2023-02-17T02:27:04.021Z,98048.53
2023-02-17T02:29:55.785Z,98049.03
2023-02-17T02:32:40.767Z,98046.72
2023-02-17T02:35:10.303Z,98049.56
2023-02-17T02:37:40.775Z,98048.16
2023-02-17T02:40:09.758Z,98046.38
2023-02-17T02:42:37.672Z,98055.78
2023-02-17T02:45:07.127Z,98051.34
2023-02-17T02:47:47.871Z,98045.94
2023-02-17T02:50:17.579Z,98048.91
2023-02-17T02:52:50.364Z,98047.94
2023-02-17T02:55:20.420Z,98043.81
2023-02-17T02:57:51.459Z,98037.00
2023-02-17T03:00:21.812Z,98029.66
2023-02-17T03:02:53.436Z,98033.78
2023-02-17T03:05:25.869Z,98025.16
2023-02-17T03:07:56.658Z,98023.59
2023-02-17T03:10:24.825Z,98013.34
2023-02-17T03:12:52.694Z,98009.69
2023-02-17T03:15:22.369Z,98011.50
2023-02-17T03:17:51.905Z,98011.81
2023-02-17T03:20:19.962Z,98015.19
2023-02-17T03:22:48.336Z,98013.31
2023-02-17T03:25:16.421Z,98008.53
2023-02-17T03:27:44.460Z,98011.22
2023-02-17T03:30:14.325Z,98013.91
2023-02-17T03:32:43.872Z,98008.81
2023-02-17T03:35:13.254Z,98011.59
2023-02-17T03:37:41.160Z,98010.44
2023-02-17T03:40:09.819Z,98011.69
2023-02-17T03:42:37.744Z,98008.53
2023-02-17T03:45:06.244Z,98009.97
2023-02-17T03:47:34.593Z,98010.53
2023-02-17T03:50:02.668Z,98014.38
2023-02-17T03:52:31.944Z,98015.69
2023-02-17T03:54:59.844Z,98017.34
2023-02-17T03:57:27.779Z,98009.13
2023-02-17T03:59:55.721Z,97997.81
2023-02-17T04:02:24.026Z,97997.38
2023-02-17T04:04:51.916Z,98005.09
2023-02-17T04:07:19.826Z,98004.22
2023-02-17T04:09:49.297Z,98004.88
2023-02-17T04:12:17.180Z,98012.38
2023-02-17T04:14:45.056Z,98001.94
2023-02-17T04:17:12.937Z,98017.72
2023-02-17T04:19:41.109Z,98018.34
2023-02-17T04:22:09.088Z,98030.88
2023-02-17T04:24:37.332Z,98021.50
2023-02-17T04:27:06.807Z,98039.28
2023-02-17T04:29:35.023Z,98024.28
2023-02-17T04:32:03.166Z,98025.19
2023-02-17T04:34:31.165Z,98013.75
2023-02-17T04:36:59.718Z,98009.47
2023-02-17T04:39:27.640Z,98019.03
2023-02-17T04:41:55.730Z,98007.19
2023-02-17T04:44:25.064Z,98014.84
2023-02-17T04:46:53.274Z,98010.88
2023-02-17T04:49:21.223Z,98022.00
2023-02-17T04:51:49.210Z,98015.13
2023-02-17T04:54:17.145Z,98003.16
2023-02-17T04:56:45.043Z,97993.59
2023-02-17T04:59:13.343Z,97979.59
2023-02-17T05:01:42.748Z,97980.13
2023-02-17T05:04:10.691Z,97985.78
2023-02-17T05:06:38.632Z,97985.19
2023-02-17T05:09:06.544Z,97978.09
2023-02-17T05:11:34.501Z,97970.38
2023-02-17T05:14:02.544Z,97974.59
2023-02-17T05:16:30.434Z,97954.53
2023-02-17T05:18:59.748Z,97956.28
2023-02-17T05:21:28.143Z,97950.06
2023-02-17T05:23:56.066Z,97944.44
2023-02-17T05:26:23.909Z,97950.19
2023-02-17T05:28:52.210Z,97959.31
2023-02-17T05:31:20.271Z,97966.00
2023-02-17T05:33:48.241Z,97965.25
2023-02-17T05:36:17.893Z,97976.03
2023-02-17T05:38:49.174Z,97961.47
2023-02-17T05:41:17.153Z,97959.47
2023-02-17T05:43:45.320Z,97966.53
2023-02-17T05:46:13.253Z,97969.91
2023-02-17T05:48:41.391Z,97967.56
2023-02-17T05:51:09.943Z,97970.16
2023-02-17T05:53:39.183Z,97962.03
2023-02-17T05:56:08.167Z,97959.69
2023-02-17T05:58:36.288Z,97953.16
2023-02-17T06:01:08.317Z,97960.88
2023-02-17T06:03:36.264Z,97968.19
2023-02-17T06:06:04.881Z,97968.22
2023-02-17T06:08:33.072Z,97957.75
2023-02-17T06:11:02.375Z,97957.94
2023-02-17T06:13:30.801Z,97954.91
2023-02-17T06:15:59.095Z,97953.91
2023-02-17T06:18:27.006Z,97955.94
2023-02-17T06:20:56.138Z,97956.97
2023-02-17T06:23:24.569Z,97966.81
2023-02-17T06:25:52.465Z,97970.00
2023-02-17T06:28:22.006Z,97966.38
2023-02-17T06:30:50.278Z,97954.19
2023-02-17T06:33:18.216Z,97970.13
2023-02-17T06:35:49.613Z,97967.03
2023-02-17T06:38:17.904Z,97961.56
2023-02-17T06:40:45.846Z,97964.63
2023-02-17T06:43:13.721Z,97945.72
2023-02-17T06:45:43.093Z,97950.84
2023-02-17T06:48:10.971Z,97957.41
2023-02-17T06:50:39.253Z,97961.78
2023-02-17T06:53:07.999Z,97967.97
2023-02-17T06:55:37.394Z,97965.53
2023-02-17T06:58:05.360Z,97960.44
2023-02-17T07:00:33.278Z,97963.44
2023-02-17T07:03:02.807Z,97960.97
2023-02-17T07:05:30.844Z,97962.69
2023-02-17T07:07:58.850Z,97968.22
2023-02-17T07:10:26.850Z,97966.53
2023-02-17T07:12:55.068Z,97975.25
2023-02-17T07:15:22.975Z,97983.44
2023-02-17T07:17:51.002Z,97979.91
2023-02-17T07:20:20.467Z,97975.25
2023-02-17T07:22:48.418Z,97981.03
2023-02-17T07:25:16.399Z,97984.66
2023-02-17T07:27:44.641Z,97991.47
2023-02-17T07:30:13.363Z,97995.38
2023-02-17T07:32:41.333Z,97991.00
2023-02-17T07:35:09.475Z,97988.53
2023-02-17T07:37:38.802Z,97990.13
2023-02-17T07:40:08.246Z,97993.44
2023-02-17T07:42:36.481Z,98004.84
2023-02-17T07:45:04.679Z,98005.97
2023-02-17T07:47:33.599Z,98011.75
2023-02-17T07:50:01.512Z,98011.81
2023-02-17T07:52:29.418Z,98012.38
2023-02-17T07:54:58.721Z,98020.19
2023-02-17T07:57:26.794Z,98015.13
2023-02-17T07:59:54.982Z,98019.34
2023-02-17T08:02:23.033Z,98007.03
2023-02-17T08:04:51.160Z,98019.25
2023-02-17T08:07:19.293Z,98021.00
2023-02-17T08:10:10.204Z,98026.38
2023-02-17T08:12:58.056Z,98026.63
2023-02-17T08:15:26.108Z,98019.94
2023-02-17T08:17:54.087Z,98023.84
2023-02-17T08:20:21.957Z,98024.50
2023-02-17T08:22:49.799Z,98026.19
2023-02-17T08:25:19.032Z,98023.78
2023-02-17T08:27:48.413Z,98011.16
2023-02-17T08:30:16.708Z,98017.47
2023-02-17T08:32:47.447Z,98020.38
2023-02-17T08:35:15.521Z,98029.03
2023-02-17T08:37:43.421Z,98031.63
2023-02-17T08:40:11.646Z,98027.63
2023-02-17T08:42:39.920Z,98035.66
2023-02-17T08:45:09.500Z,98039.94
2023-02-17T08:47:37.645Z,98036.13
2023-02-17T08:50:06.376Z,98035.06
2023-02-17T08:52:35.558Z,98030.47
2023-02-17T08:55:03.529Z,98029.50
2023-02-17T08:57:31.434Z,98026.06
2023-02-17T08:59:59.672Z,98015.03
2023-02-17T09:02:28.952Z,98029.91
2023-02-17T09:04:56.992Z,98023.06
2023-02-17T09:07:25.191Z,98021.34
2023-02-17T09:09:53.150Z,98013.06
2023-02-17T09:12:21.097Z,98008.72
2023-02-17T09:14:49.128Z,98018.97
2023-02-17T09:17:17.084Z,98026.13
2023-02-17T09:19:46.489Z,98024.81
2023-02-17T09:22:30.543Z,98035.63
2023-02-17T09:24:59.544Z,98033.47
2023-02-17T09:27:27.929Z,98027.41
2023-02-17T09:29:56.014Z,98026.66
2023-02-17T09:32:24.156Z,98037.25
2023-02-17T09:34:54.359Z,98029.09
2023-02-17T09:37:23.116Z,98023.63
2023-02-17T09:39:51.067Z,98029.84
2023-02-17T09:42:20.203Z,98018.28
2023-02-17T09:44:49.933Z,98029.00
2023-02-17T09:47:20.375Z,98019.25
2023-02-17T09:49:49.650Z,98036.19
2023-02-17T09:52:21.448Z,98018.00
2023-02-17T09:54:54.710Z,98024.47
2023-02-17T09:57:23.279Z,98030.78
2023-02-17T09:59:53.421Z,98017.78
2023-02-17T10:02:26.354Z,98009.34
2023-02-17T10:04:54.368Z,98023.81
2023-02-17T10:07:26.916Z,98014.69
2023-02-17T10:09:56.600Z,98013.09
2023-02-17T10:12:26.068Z,98006.53
2023-02-17T10:14:56.711Z,98005.00
2023-02-17T10:17:28.149Z,98000.66
2023-02-17T10:19:58.194Z,98007.94
2023-02-17T10:22:27.843Z,97990.38
2023-02-17T10:24:55.767Z,97996.09
2023-02-17T10:27:31.469Z,98003.78
2023-02-17T10:30:06.354Z,97981.72
2023-02-17T10:32:49.573Z,97977.31
2023-02-17T10:35:18.270Z,97974.00
2023-02-17T10:37:50.898Z,97981.47
2023-02-17T10:40:21.461Z,97970.75
2023-02-17T10:42:50.864Z,97969.28
2023-02-17T10:45:25.317Z,97982.25
2023-02-17T10:47:54.585Z,97985.66
2023-02-17T10:50:23.249Z,97990.47
2023-02-17T10:53:00.124Z,97985.09
2023-02-17T10:55:38.045Z,97985.94
2023-02-17T10:58:11.415Z,97982.72
2023-02-17T11:00:47.737Z,97978.47
2023-02-17T11:03:22.346Z,97969.13
2023-02-17T11:05:55.234Z,97956.13
2023-02-17T11:08:31.512Z,97945.38
2023-02-17T11:11:04.664Z,97946.31
2023-02-17T11:13:35.490Z,97942.00
2023-02-17T11:16:03.473Z,97943.44
2023-02-17T11:18:33.523Z,97937.22
2023-02-17T11:21:03.092Z,97936.22
2023-02-17T11:23:32.576Z,97952.91
2023-02-17T11:26:03.045Z,97945.81
2023-02-17T11:28:31.365Z,97936.22
2023-02-17T11:31:00.406Z,97923.53
2023-02-17T11:33:31.890Z,97919.06
2023-02-17T11:35:59.892Z,97911.50
2023-02-17T11:38:28.484Z,97889.25
2023-02-17T11:40:59.358Z,97908.22
2023-02-17T11:43:28.626Z,97903.16
2023-02-17T11:46:02.052Z,97901.44
2023-02-17T11:48:45.797Z,97901.97
2023-02-17T11:51:15.966Z,97881.81
2023-02-17T11:53:50.440Z,97872.03
2023-02-17T11:56:20.625Z,97878.00
2023-02-17T11:59:19.920Z,97894.13
2023-02-17T12:02:03.204Z,97887.94
2023-02-17T12:04:31.319Z,97876.19
2023-02-17T12:07:30.139Z,97871.16
2023-02-17T12:10:02.830Z,97865.38
2023-02-17T12:12:52.458Z,97860.97
2023-02-17T12:15:35.843Z,97854.63
2023-02-17T12:18:10.074Z,97862.41
2023-02-17T12:20:45.644Z,97854.19
2023-02-17T12:23:31.251Z,97850.50
2023-02-17T12:26:07.349Z,97828.13
2023-02-17T12:28:53.970Z,97814.22
2023-02-17T12:31:28.872Z,97837.13
2023-02-17T12:33:59.186Z,97846.91
2023-02-17T12:36:30.222Z,97833.81
2023-02-17T12:39:00.169Z,97842.69
2023-02-17T12:41:28.699Z,97834.16
2023-02-17T12:44:07.235Z,97829.34
2023-02-17T12:46:43.848Z,97838.28
2023-02-17T12:49:15.813Z,97825.16
2023-02-17T12:51:45.684Z,97833.03
2023-02-17T12:54:16.785Z,97839.41
2023-02-17T12:56:57.043Z,97855.53
2023-02-17T12:59:28.675Z,97848.44
2023-02-17T13:01:58.748Z,97843.81
2023-02-17T13:04:26.702Z,97833.75
2023-02-17T13:06:59.117Z,97837.41
2023-02-17T13:09:31.155Z,97831.47
2023-02-17T13:12:10.147Z,97831.19
2023-02-17T13:14:47.057Z,97835.28
2023-02-17T13:17:27.054Z,97836.53
2023-02-17T13:20:07.352Z,97829.47
2023-02-17T13:22:35.276Z,97829.34
2023-02-17T13:25:03.256Z,97823.25
2023-02-17T13:27:35.217Z,97837.16
2023-02-17T13:30:05.584Z,97818.47
2023-02-17T13:32:34.402Z,97838.38
2023-02-17T13:35:06.083Z,97847.56
2023-02-17T13:37:42.416Z,97856.03
2023-02-17T13:40:35.591Z,97849.72
2023-02-17T13:43:10.317Z,97849.00
2023-02-17T13:45:42.588Z,97864.53
2023-02-17T13:48:15.911Z,97859.66
2023-02-17T13:50:47.843Z,97862.31
2023-02-17T13:53:24.584Z,97860.34
2023-02-17T13:55:52.742Z,97857.47
2023-02-17T13:58:24.358Z,97864.44
2023-02-17T14:00:53.870Z,97867.09
2023-02-17T14:03:23.142Z,97858.06
2023-02-17T14:05:52.267Z,97871.66
2023-02-17T14:08:24.297Z,97874.59
2023-02-17T14:10:52.975Z,97876.34
2023-02-17T14:13:21.276Z,97882.50
2023-02-17T14:15:55.227Z,97877.84
2023-02-17T14:18:30.365Z,97897.38
2023-02-17T14:21:06.070Z,97888.44
2023-02-17T14:23:48.090Z,97888.53
2023-02-17T14:26:28.525Z,97882.00
2023-02-17T14:28:57.618Z,97889.72
2023-02-17T14:31:27.082Z,97893.09
2023-02-17T14:33:56.607Z,97890.47
2023-02-17T14:36:33.153Z,97897.09
2023-02-17T14:39:01.252Z,97895.72
2023-02-17T14:41:29.352Z,97902.88
2023-02-17T14:43:57.607Z,97911.50
2023-02-17T14:46:27.088Z,97912.38
2023-02-17T14:48:55.170Z,97913.66
2023-02-17T14:51:24.201Z,97940.13
2023-02-17T14:53:52.454Z,97945.75
2023-02-17T14:56:24.249Z,97936.34
2023-02-17T14:58:53.136Z,97947.59
2023-02-17T15:01:21.805Z,97949.06
2023-02-17T15:03:52.524Z,97953.50
2023-02-17T15:06:22.251Z,97950.16
2023-02-17T15:08:50.390Z,97947.81
2023-02-17T15:11:20.727Z,97946.63
2023-02-17T15:13:48.767Z,97943.03
2023-02-17T15:16:17.415Z,97939.03
2023-02-17T15:18:45.417Z,97952.34
2023-02-17T15:21:21.171Z,97955.34
2023-02-17T15:23:49.553Z,97954.75
2023-02-17T15:26:17.743Z,97954.69
2023-02-17T15:28:45.741Z,97954.25
2023-02-17T15:31:15.604Z,97955.16
2023-02-17T15:33:43.829Z,97964.06
2023-02-17T15:36:13.811Z,97955.81
2023-02-17T15:38:43.533Z,97952.53
2023-02-17T15:41:15.693Z,97955.75
2023-02-17T15:43:43.734Z,97966.41
2023-02-17T15:46:13.483Z,97971.75
2023-02-17T15:48:41.511Z,97989.81
2023-02-17T15:51:12.213Z,97981.84
2023-02-17T15:53:40.629Z,97996.22
2023-02-17T15:56:13.720Z,98017.47
2023-02-17T15:58:41.727Z,98039.41
2023-02-17T16:01:13.918Z,98054.06
2023-02-17T16:03:41.902Z,98053.56
2023-02-17T16:06:09.909Z,98056.41
2023-02-17T16:08:39.954Z,98058.47
2023-02-17T16:11:10.652Z,98061.03
2023-02-17T16:13:40.629Z,98065.03
2023-02-17T16:16:10.739Z,98063.09
2023-02-17T16:18:38.736Z,98070.31
2023-02-17T16:21:07.626Z,98071.63
2023-02-17T16:23:36.092Z,98075.03
2023-02-17T16:26:04.311Z,98088.44
2023-02-17T16:28:32.713Z,98090.66
2023-02-17T16:31:02.121Z,98094.03
2023-02-17T16:33:30.112Z,98101.72
2023-02-17T16:35:58.124Z,98103.31
2023-02-17T16:38:26.118Z,98111.13
2023-02-17T16:40:54.906Z,98106.47
2023-02-17T16:43:24.052Z,98105.38
2023-02-17T16:45:53.773Z,98104.28
2023-02-17T16:48:23.974Z,98109.41
2023-02-17T16:50:52.133Z,98110.72
2023-02-17T16:53:20.165Z,98112.94
2023-02-17T16:55:48.167Z,98118.91
2023-02-17T16:58:17.068Z,98105.34
2023-02-17T17:00:45.215Z,98115.72
2023-02-17T17:03:13.237Z,98120.47
2023-02-17T17:05:43.396Z,98121.44
2023-02-17T17:08:14.312Z,98120.84
2023-02-17T17:10:42.240Z,98120.72
2023-02-17T17:13:10.685Z,98130.84
2023-02-17T17:15:38.725Z,98125.59
2023-02-17T17:18:08.776Z,98126.94
2023-02-17T17:20:37.506Z,98128.03
2023-02-17T17:23:08.251Z,98130.47
2023-02-17T17:25:36.816Z,98141.44
2023-02-17T17:28:13.698Z,98129.75
2023-02-17T17:30:42.186Z,98141.47
2023-02-17T17:33:10.127Z,98140.72
2023-02-17T17:35:38.231Z,98141.31
2023-02-17T17:38:08.222Z,98143.28
2023-02-17T17:40:48.461Z,98154.59
2023-02-17T17:43:16.985Z,98152.44
2023-02-17T17:45:45.270Z,98156.31
2023-02-17T17:48:14.168Z,98155.19
2023-02-17T17:50:42.262Z,98155.84
2023-02-17T17:53:11.979Z,98165.91
2023-02-17T17:55:39.948Z,98157.28
2023-02-17T17:58:07.944Z,98157.41
2023-02-17T18:00:36.260Z,98167.13
2023-02-17T18:03:05.167Z,98172.13
2023-02-17T18:05:33.188Z,98178.91
2023-02-17T18:08:01.573Z,98182.81
2023-02-17T18:10:30.922Z,98200.94
2023-02-17T18:12:58.895Z,98196.84
2023-02-17T18:15:26.874Z,98203.78
2023-02-17T18:17:54.899Z,98209.03
2023-02-17T18:20:23.024Z,98215.94
2023-02-17T18:22:51.297Z,98214.06
2023-02-17T18:25:19.404Z,98217.97
2023-02-17T18:27:48.864Z,98234.84
2023-02-17T18:30:17.934Z,98227.34
2023-02-17T18:32:46.017Z,98237.38
2023-02-17T18:35:14.049Z,98225.69
2023-02-17T18:37:42.010Z,98229.94
2023-02-17T18:40:12.574Z,98230.91
2023-02-17T18:42:40.550Z,98238.81
2023-02-17T18:45:10.779Z,98235.13
2023-02-17T18:47:38.964Z,98230.22
2023-02-17T18:50:08.123Z,98251.94
2023-02-17T18:52:37.303Z,98238.00
2023-02-17T18:55:05.490Z,98237.59
2023-02-17T18:57:33.447Z,98249.59
2023-02-17T19:00:01.478Z,98252.84
2023-02-17T19:02:31.206Z,98252.84
2023-02-17T19:04:59.158Z,98260.56
2023-02-17T19:07:27.086Z,98267.75
2023-02-17T19:09:55.023Z,98258.50
2023-02-17T19:12:22.875Z,98269.66
2023-02-17T19:14:55.656Z,98269.38
2023-02-17T19:17:24.007Z,98271.72
2023-02-17T19:19:53.408Z,98265.78
2023-02-17T19:22:21.392Z,98278.56
2023-02-17T19:24:51.488Z,98270.97
2023-02-17T19:27:19.453Z,98273.97
2023-02-17T19:29:47.486Z,98276.13
2023-02-17T19:32:15.788Z,98276.69
2023-02-17T19:34:43.769Z,98283.91
2023-02-17T19:37:13.162Z,98290.69
2023-02-17T19:39:41.087Z,98287.28
2023-02-17T19:42:09.235Z,98289.63
2023-02-17T19:44:37.408Z,98280.06
2023-02-17T19:47:05.334Z,98284.97
2023-02-17T19:49:33.324Z,98290.19
2023-02-17T19:52:01.605Z,98289.56
2023-02-17T19:54:30.891Z,98286.28
2023-02-17T19:56:58.836Z,98291.56
2023-02-17T19:59:27.075Z,98291.66
2023-02-17T20:01:55.015Z,98295.47
2023-02-17T20:04:23.002Z,98294.72
2023-02-17T20:06:52.293Z,98297.38
2023-02-17T20:09:21.041Z,98292.63
2023-02-17T20:11:52.949Z,98288.94
2023-02-17T20:14:21.362Z,98288.81
2023-02-17T20:16:49.959Z,98295.13
2023-02-17T20:19:17.969Z,98289.66
2023-02-17T20:21:46.219Z,98295.78
2023-02-17T20:24:15.186Z,98293.88
2023-02-17T20:26:44.384Z,98288.22
2023-02-17T20:29:13.843Z,98299.53
2023-02-17T20:31:41.979Z,98298.00
2023-02-17T20:34:15.735Z,98302.84
2023-02-17T20:36:43.614Z,98302.47
2023-02-17T20:39:12.161Z,98290.59
2023-02-17T20:41:40.341Z,98289.50
2023-02-17T20:44:08.263Z,98301.94
2023-02-17T20:46:37.566Z,98297.88
2023-02-17T20:49:05.507Z,98287.75
2023-02-17T20:51:33.435Z,98289.31
2023-02-17T20:54:01.366Z,98290.06
2023-02-17T20:56:33.778Z,98300.56
2023-02-17T20:59:01.743Z,98301.91
2023-02-17T21:01:29.793Z,98297.81
2023-02-17T21:03:59.048Z,98308.91
2023-02-17T21:06:28.418Z,98325.53
2023-02-17T21:08:57.434Z,98319.41
2023-02-17T21:11:25.588Z,98322.13
2023-02-17T21:13:53.851Z,98317.13
2023-02-17T21:16:27.259Z,98323.72
2023-02-17T21:18:55.297Z,98330.94
2023-02-17T21:21:24.668Z,98327.22
2023-02-17T21:23:53.166Z,98329.78
2023-02-17T21:26:21.777Z,98326.09
2023-02-17T21:28:50.049Z,98330.94
2023-02-17T21:31:18.139Z,98336.38
2023-02-17T21:33:46.196Z,98329.25
2023-02-17T21:36:14.980Z,98328.00
2023-02-17T21:38:44.376Z,98331.25
2023-02-17T21:41:13.560Z,98331.00
2023-02-17T21:43:59.180Z,98339.41
2023-02-17T21:46:27.400Z,98341.72
2023-02-17T21:48:56.245Z,98336.81
2023-02-17T21:51:24.154Z,98341.50
2023-02-17T21:53:53.828Z,98338.53
2023-02-17T21:56:22.386Z,98340.81
2023-02-17T21:58:51.586Z,98337.28
2023-02-17T22:01:19.789Z,98334.38
2023-02-17T22:03:50.747Z,98336.63
2023-02-17T22:06:20.987Z,98342.19
2023-02-17T22:08:48.916Z,98345.41
2023-02-17T22:11:19.567Z,98337.78
2023-02-17T22:13:47.640Z,98342.19
2023-02-17T22:16:16.055Z,98337.03
2023-02-17T22:18:43.993Z,98341.78
2023-02-17T22:21:12.642Z,98347.22
2023-02-17T22:23:40.969Z,98344.03
2023-02-17T22:26:09.626Z,98351.31
2023-02-17T22:28:39.169Z,98346.06
2023-02-17T22:31:07.393Z,98346.47
2023-02-17T22:33:35.437Z,98341.03
2023-02-17T22:36:05.170Z,98348.75
2023-02-17T22:38:34.595Z,98340.47
2023-02-17T22:41:06.027Z,98338.03
2023-02-17T22:43:33.973Z,98331.72
2023-02-17T22:46:03.898Z,98341.88
2023-02-17T22:48:33.011Z,98346.25
2023-02-17T22:51:05.013Z,98338.56
2023-02-17T22:53:33.207Z,98330.31
2023-02-17T22:56:01.237Z,98338.47
2023-02-17T22:58:29.196Z,98331.06
2023-02-17T23:01:05.397Z,98335.00
2023-02-17T23:03:33.416Z,98332.44
2023-02-17T23:06:01.655Z,98322.94
2023-02-17T23:08:30.052Z,98327.84
2023-02-17T23:10:58.016Z,98328.38
2023-02-17T23:13:26.029Z,98326.56
2023-02-17T23:15:54.028Z,98334.59
2023-02-17T23:18:23.700Z,98319.59
2023-02-17T23:20:58.258Z,98332.44
2023-02-17T23:23:27.014Z,98328.78
2023-02-17T23:25:55.829Z,98331.38
2023-02-17T23:28:24.792Z,98350.16
2023-02-17T23:30:52.819Z,98347.63
2023-02-17T23:33:21.653Z,98339.09
2023-02-17T23:35:51.027Z,98343.78
2023-02-17T23:38:20.858Z,98336.72
2023-02-17T23:40:49.752Z,98344.00
2023-02-17T23:43:17.891Z,98330.31
2023-02-17T23:45:45.904Z,98327.31
2023-02-17T23:48:14.028Z,98327.78
2023-02-17T23:50:41.987Z,98324.19
2023-02-17T23:53:11.380Z,98326.88
2023-02-17T23:55:39.606Z,98328.03
2023-02-17T23:58:07.601Z,98326.88
